Main page
METAR-TAF:

METAR-TAF

Airports :

Madrid–Torrejón Airport

Madrid-Torrejón, Spain

latitude: 40-29N, longitude: 003-27W, elevation: 607 m

Current weather observation

The report was made 18 minutes ago, at 14:30 UTC
Wind 1 kt from the North
Temperature 13°C
Humidity 54%
Pressure 1026 hPa
Visibility 10 km or more
Few clouds at a height of 3200 ft
Overcast at a height of 4200 ft

METAR: LETO 021430Z 36001KT 9999 FEW032 OVC042 13/04 Q1026 NOSIG

Time: 15:48 (14:48 UTC)

Forecast

The report was made 3 hours and 48 minutes ago, at 11:00 UTC
Forecast valid from 02 at 12 UTC to 03 at 12 UTC
Wind 5 kt from the North/Northeast
Visibility 10 km or more
Scattered clouds at a height of 3000 ft
Broken clouds at a height of 4500 ft
Probability 30% :
Temporary
from 02 at 12 UTC to 02 at 17 UTC
Wind 6 kt from the East/Southeast

TAF: LETO 021100Z 0212/0312 02005KT 9999 SCT030 BKN045 TX13/0215Z TN06/0306Z PROB30 TEMPO 0212/0217 12006KT

Weather observations and forecasts of more than 4000 airports (METAR and TAF reports).

The available stations are represented by yellow and red dots on the map.

Hover mouse over dot to see the name of the station.

Then click to see weather observations and forecasts.

To change the map : click on the green buttons with a black cross to zoom in, on the green button with a dash to zoom out, or on the green arrows for adjacent maps.


METAR-TAF: